Terminal Aerodrome Forecast
Issued by NWS Des Moines, IA

Home | Current Version | Previous Version | Text Only | Print | Product List | Glossary On
Versions: 1 2 3 4 5 6 7 8 9 10 11 12 13 14 15 16 17 18 19
000
FTUS43 KDMX 181438 AAA
TAFDSM
TAF AMD
KDSM 181438Z 1815/1912 34015G22KT 6SM BR OVC008
     FM181600 34017G26KT P6SM SCT015 BKN120
     FM181900 33020G29KT P6SM SCT250
     FM190100 32012KT P6SM SKC=

USA.gov is the U.S. government's official web portal to all federal, state and local government web resources and services.